Zion, Mississippi
Current Conditions -  °F | °C
As of 4:53 PM on Monday 20 Oct 2014 (Local Time) from KTUP Reporting Station
Few Clouds Few Clouds  
Wind Chill: 72°   Ceiling: Unl
Heat Index: 72°   Visibility: 10mi
Dew Point: 50°   Wind: 5mph
Humidity: 46%   Direction: NA
Pressure: 30.01"   Gusts: NA
Location:  34.1762°N, 88.9612°W
Report Text: KTUP 202153Z VRB04KT 10SM FEW120 22/10 A3001 RMK AO2 SLP160 T02220100 $
Loading
Personal Weather Stations






























Interactive Weather Map
Tropical Storm Tracking
New forecast layout! Learn more

10-Day Weather Forecast

Advertisements
Track Severe Weather on mobile